sensor_id;sensor_type;location;lat;lon;timestamp;pressure;altitude;pressure_sealevel;temperature;humidity
23253;BME280;11795;47.054;15.408;2023-02-18T00:00:01;97840;;;7.0;68.0
23253;BME280;11795;47.054;15.408;2023-02-18T00:04:00;97840;;;7.0;68.1
23253;BME280;11795;47.054;15.408;2023-02-18T00:06:00;97840;;;6.9;68.4
23253;BME280;11795;47.054;15.408;2023-02-18T00:08:00;97840;;;6.8;68.7
23253;BME280;11795;47.054;15.408;2023-02-18T00:10:00;97840;;;7.0;68.3
23253;BME280;11795;47.054;15.408;2023-02-18T00:12:00;97840;;;6.9;68.5
23253;BME280;11795;47.054;15.408;2023-02-18T00:14:02;97840;;;7.1;68.0
23253;BME280;11795;47.054;15.408;2023-02-18T00:16:01;97840;;;6.9;68.3
23253;BME280;11795;47.054;15.408;2023-02-18T00:18:00;97840;;;6.8;68.7
23253;BME280;11795;47.054;15.408;2023-02-18T00:20:00;97840;;;7.0;68.2
23253;BME280;11795;47.054;15.408;2023-02-18T00:22:00;97840;;;6.9;68.6
23253;BME280;11795;47.054;15.408;2023-02-18T00:24:00;97840;;;7.0;68.2
23253;BME280;11795;47.054;15.408;2023-02-18T00:26:04;97850;;;6.8;68.7
23253;BME280;11795;47.054;15.408;2023-02-18T00:28:00;97850;;;6.8;68.9
23253;BME280;11795;47.054;15.408;2023-02-18T00:30:00;97850;;;6.9;68.2
23253;BME280;11795;47.054;15.408;2023-02-18T00:32:00;97850;;;6.8;68.5
23253;BME280;11795;47.054;15.408;2023-02-18T00:34:01;97850;;;7.0;68.2
23253;BME280;11795;47.054;15.408;2023-02-18T00:36:01;97850;;;6.8;68.6
23253;BME280;11795;47.054;15.408;2023-02-18T00:38:00;97850;;;6.7;69.0
23253;BME280;11795;47.054;15.408;2023-02-18T00:40:00;97860;;;6.8;68.5
23253;BME280;11795;47.054;15.408;2023-02-18T00:42:00;97850;;;6.7;69.1
23253;BME280;11795;47.054;15.408;2023-02-18T00:44:01;97850;;;6.9;68.7
23253;BME280;11795;47.054;15.408;2023-02-18T00:46:01;97850;;;6.6;69.6
23253;BME280;11795;47.054;15.408;2023-02-18T00:48:00;97860;;;6.6;69.7
23253;BME280;11795;47.054;15.408;2023-02-18T00:50:00;97860;;;6.7;69.3
23253;BME280;11795;47.054;15.408;2023-02-18T00:52:00;97860;;;6.6;69.6
23253;BME280;11795;47.054;15.408;2023-02-18T00:54:00;97850;;;6.8;69.2
23253;BME280;11795;47.054;15.408;2023-02-18T00:56:00;97850;;;6.6;69.5
23253;BME280;11795;47.054;15.408;2023-02-18T00:58:00;97850;;;6.6;69.7
23253;BME280;11795;47.054;15.408;2023-02-18T01:00:00;97850;;;6.7;69.0
23253;BME280;11795;47.054;15.408;2023-02-18T01:02:00;97860;;;6.5;69.5
23253;BME280;11795;47.054;15.408;2023-02-18T01:04:00;97850;;;6.7;69.1
23253;BME280;11795;47.054;15.408;2023-02-18T01:06:00;97850;;;6.5;69.4
23253;BME280;11795;47.054;15.408;2023-02-18T01:08:00;97850;;;6.4;69.8
23253;BME280;11795;47.054;15.408;2023-02-18T01:10:00;97850;;;6.4;70.2
23253;BME280;11795;47.054;15.408;2023-02-18T01:12:00;97850;;;6.3;70.5
23253;BME280;11795;47.054;15.408;2023-02-18T01:14:00;97840;;;6.6;69.8
23253;BME280;11795;47.054;15.408;2023-02-18T01:16:00;97850;;;6.4;70.2
23253;BME280;11795;47.054;15.408;2023-02-18T01:18:00;97850;;;6.4;70.4
23253;BME280;11795;47.054;15.408;2023-02-18T01:20:00;97860;;;6.4;70.2
23253;BME280;11795;47.054;15.408;2023-02-18T01:22:00;97850;;;6.3;70.5
23253;BME280;11795;47.054;15.408;2023-02-18T01:24:00;97840;;;6.5;70.2
23253;BME280;11795;47.054;15.408;2023-02-18T01:26:00;97850;;;6.4;70.6
23253;BME280;11795;47.054;15.408;2023-02-18T01:28:00;97850;;;6.3;70.7
23253;BME280;11795;47.054;15.408;2023-02-18T01:30:01;97850;;;6.5;70.3
23253;BME280;11795;47.054;15.408;2023-02-18T01:32:00;97850;;;6.4;70.8
23253;BME280;11795;47.054;15.408;2023-02-18T01:34:00;97840;;;6.6;70.3
23253;BME280;11795;47.054;15.408;2023-02-18T01:36:00;97850;;;6.4;70.5
23253;BME280;11795;47.054;15.408;2023-02-18T01:38:00;97850;;;6.4;70.5
23253;BME280;11795;47.054;15.408;2023-02-18T01:40:00;97850;;;6.5;70.1
23253;BME280;11795;47.054;15.408;2023-02-18T01:42:00;97840;;;6.4;70.7
23253;BME280;11795;47.054;15.408;2023-02-18T01:44:11;97850;;;6.6;70.2
23253;BME280;11795;47.054;15.408;2023-02-18T01:46:05;97840;;;6.4;70.7
23253;BME280;11795;47.054;15.408;2023-02-18T01:48:02;97840;;;6.3;70.9
23253;BME280;11795;47.054;15.408;2023-02-18T01:50:00;97850;;;6.4;70.3
23253;BME280;11795;47.054;15.408;2023-02-18T01:52:04;97840;;;6.3;70.7
23253;BME280;11795;47.054;15.408;2023-02-18T01:54:03;97830;;;6.4;71.4
23253;BME280;11795;47.054;15.408;2023-02-18T01:56:02;97840;;;6.3;71.5
23253;BME280;11795;47.054;15.408;2023-02-18T01:58:01;97830;;;6.2;71.9
23253;BME280;11795;47.054;15.408;2023-02-18T02:00:04;97830;;;6.2;72.1
23253;BME280;11795;47.054;15.408;2023-02-18T02:02:00;97830;;;6.2;72.3
23253;BME280;11795;47.054;15.408;2023-02-18T02:04:01;97830;;;6.4;71.7
23253;BME280;11795;47.054;15.408;2023-02-18T02:06:00;97820;;;6.3;71.7
23253;BME280;11795;47.054;15.408;2023-02-18T02:08:01;97820;;;6.2;72.1
23253;BME280;11795;47.054;15.408;2023-02-18T02:10:00;97820;;;6.3;71.8
23253;BME280;11795;47.054;15.408;2023-02-18T02:12:15;97830;;;6.2;72.2
23253;BME280;11795;47.054;15.408;2023-02-18T02:14:09;97820;;;6.4;71.9
23253;BME280;11795;47.054;15.408;2023-02-18T02:16:05;97830;;;6.2;72.4
23253;BME280;11795;47.054;15.408;2023-02-18T02:18:14;97830;;;6.2;72.6
23253;BME280;11795;47.054;15.408;2023-02-18T02:24:14;97800;;;6.3;72.5
23253;BME280;11795;47.054;15.408;2023-02-18T02:28:17;97810;;;6.2;73.3
23253;BME280;11795;47.054;15.408;2023-02-18T02:30:16;97800;;;6.3;72.5
23253;BME280;11795;47.054;15.408;2023-02-18T02:32:09;97800;;;6.2;72.9
23253;BME280;11795;47.054;15.408;2023-02-18T02:34:15;97810;;;6.4;72.8
23253;BME280;11795;47.054;15.408;2023-02-18T02:36:04;97810;;;6.2;73.0
23253;BME280;11795;47.054;15.408;2023-02-18T02:38:03;97790;;;6.1;73.3
23253;BME280;11795;47.054;15.408;2023-02-18T02:40:08;97800;;;6.2;73.1
23253;BME280;11795;47.054;15.408;2023-02-18T02:42:14;97800;;;6.1;73.6
23253;BME280;11795;47.054;15.408;2023-02-18T02:44:09;97790;;;6.3;73.1
23253;BME280;11795;47.054;15.408;2023-02-18T02:46:02;97780;;;6.1;73.3
23253;BME280;11795;47.054;15.408;2023-02-18T02:48:07;97800;;;6.1;73.7
23253;BME280;11795;47.054;15.408;2023-02-18T02:50:02;97790;;;6.2;73.1
23253;BME280;11795;47.054;15.408;2023-02-18T02:52:04;97790;;;6.1;73.4
23253;BME280;11795;47.054;15.408;2023-02-18T02:54:10;97790;;;6.2;73.0
23253;BME280;11795;47.054;15.408;2023-02-18T02:56:00;97800;;;6.0;73.3
23253;BME280;11795;47.054;15.408;2023-02-18T02:58:00;97790;;;5.9;74.0
23253;BME280;11795;47.054;15.408;2023-02-18T03:00:03;97780;;;6.1;73.4
23253;BME280;11795;47.054;15.408;2023-02-18T03:02:11;97790;;;6.0;73.7
23253;BME280;11795;47.054;15.408;2023-02-18T03:06:13;97780;;;6.0;73.8
23253;BME280;11795;47.054;15.408;2023-02-18T03:08:08;97790;;;5.9;74.1
23253;BME280;11795;47.054;15.408;2023-02-18T03:10:11;97780;;;6.1;73.5
23253;BME280;11795;47.054;15.408;2023-02-18T03:12:06;97780;;;6.0;73.9
23253;BME280;11795;47.054;15.408;2023-02-18T03:14:08;97780;;;6.2;73.5
23253;BME280;11795;47.054;15.408;2023-02-18T03:16:10;97790;;;6.1;73.6
23253;BME280;11795;47.054;15.408;2023-02-18T03:18:02;97790;;;6.0;74.1
23253;BME280;11795;47.054;15.408;2023-02-18T03:20:05;97790;;;6.1;73.7
23253;BME280;11795;47.054;15.408;2023-02-18T03:22:05;97790;;;6.0;74.0
23253;BME280;11795;47.054;15.408;2023-02-18T03:24:02;97790;;;6.2;73.6
23253;BME280;11795;47.054;15.408;2023-02-18T03:26:02;97800;;;6.0;74.0
23253;BME280;11795;47.054;15.408;2023-02-18T03:28:02;97790;;;5.9;74.3
23253;BME280;11795;47.054;15.408;2023-02-18T03:30:03;97780;;;6.1;74.2
23253;BME280;11795;47.054;15.408;2023-02-18T03:32:03;97800;;;6.0;74.6
23253;BME280;11795;47.054;15.408;2023-02-18T03:34:03;97780;;;6.2;74.2
23253;BME280;11795;47.054;15.408;2023-02-18T03:36:00;97800;;;6.0;74.6
23253;BME280;11795;47.054;15.408;2023-02-18T03:38:06;97800;;;6.0;74.6
23253;BME280;11795;47.054;15.408;2023-02-18T03:40:01;97790;;;6.1;74.0
23253;BME280;11795;47.054;15.408;2023-02-18T03:42:00;97800;;;5.9;74.7
23253;BME280;11795;47.054;15.408;2023-02-18T03:44:03;97800;;;6.1;74.4
23253;BME280;11795;47.054;15.408;2023-02-18T03:46:01;97800;;;6.0;74.6
23253;BME280;11795;47.054;15.408;2023-02-18T03:48:00;97790;;;6.0;74.7
23253;BME280;11795;47.054;15.408;2023-02-18T03:50:00;97790;;;6.1;74.1
23253;BME280;11795;47.054;15.408;2023-02-18T03:52:00;97790;;;6.0;74.6
23253;BME280;11795;47.054;15.408;2023-02-18T03:54:00;97800;;;6.2;74.1
23253;BME280;11795;47.054;15.408;2023-02-18T03:56:00;97800;;;6.0;74.3
23253;BME280;11795;47.054;15.408;2023-02-18T03:58:00;97800;;;5.9;74.9
23253;BME280;11795;47.054;15.408;2023-02-18T04:00:00;97810;;;6.1;74.5
23253;BME280;11795;47.054;15.408;2023-02-18T04:02:00;97800;;;6.0;74.8
23253;BME280;11795;47.054;15.408;2023-02-18T04:04:00;97800;;;6.2;74.4
23253;BME280;11795;47.054;15.408;2023-02-18T04:06:00;97800;;;6.0;74.8
23253;BME280;11795;47.054;15.408;2023-02-18T04:08:00;97800;;;5.9;75.1
23253;BME280;11795;47.054;15.408;2023-02-18T04:10:00;97800;;;6.1;74.5
23253;BME280;11795;47.054;15.408;2023-02-18T04:12:00;97800;;;6.0;74.9
23253;BME280;11795;47.054;15.408;2023-02-18T04:14:00;97800;;;6.2;74.4
23253;BME280;11795;47.054;15.408;2023-02-18T04:16:00;97810;;;6.1;74.3
23253;BME280;11795;47.054;15.408;2023-02-18T04:18:00;97810;;;5.9;74.8
23253;BME280;11795;47.054;15.408;2023-02-18T04:20:00;97810;;;6.1;74.1
23253;BME280;11795;47.054;15.408;2023-02-18T04:22:00;97800;;;5.9;74.6
23253;BME280;11795;47.054;15.408;2023-02-18T04:24:00;97800;;;6.1;74.6
23253;BME280;11795;47.054;15.408;2023-02-18T04:26:00;97800;;;5.9;74.8
23253;BME280;11795;47.054;15.408;2023-02-18T04:28:00;97800;;;5.9;75.2
23253;BME280;11795;47.054;15.408;2023-02-18T04:30:00;97800;;;6.0;74.8
23253;BME280;11795;47.054;15.408;2023-02-18T04:32:00;97800;;;5.9;75.3
23253;BME280;11795;47.054;15.408;2023-02-18T04:34:00;97790;;;6.1;74.9
23253;BME280;11795;47.054;15.408;2023-02-18T04:36:00;97790;;;6.0;75.2
23253;BME280;11795;47.054;15.408;2023-02-18T04:38:00;97800;;;5.9;75.6
23253;BME280;11795;47.054;15.408;2023-02-18T04:40:00;97790;;;6.1;75.0
23253;BME280;11795;47.054;15.408;2023-02-18T04:42:00;97800;;;6.0;75.3
23253;BME280;11795;47.054;15.408;2023-02-18T04:44:00;97800;;;6.2;75.2
23253;BME280;11795;47.054;15.408;2023-02-18T04:46:00;97810;;;6.0;75.5
23253;BME280;11795;47.054;15.408;2023-02-18T04:48:00;97800;;;6.0;76.0
23253;BME280;11795;47.054;15.408;2023-02-18T04:50:00;97800;;;6.1;75.7
23253;BME280;11795;47.054;15.408;2023-02-18T04:52:00;97800;;;6.0;76.1
23253;BME280;11795;47.054;15.408;2023-02-18T04:54:00;97790;;;6.2;75.6
23253;BME280;11795;47.054;15.408;2023-02-18T04:56:00;97800;;;6.1;75.6
23253;BME280;11795;47.054;15.408;2023-02-18T04:58:00;97800;;;6.1;75.9
23253;BME280;11795;47.054;15.408;2023-02-18T05:00:00;97800;;;6.2;75.4
23253;BME280;11795;47.054;15.408;2023-02-18T05:02:00;97800;;;6.1;76.2
23253;BME280;11795;47.054;15.408;2023-02-18T05:04:00;97790;;;6.3;75.6
23253;BME280;11795;47.054;15.408;2023-02-18T05:06:00;97780;;;6.2;75.6
23253;BME280;11795;47.054;15.408;2023-02-18T05:08:00;97790;;;6.1;76.0
23253;BME280;11795;47.054;15.408;2023-02-18T05:10:00;97790;;;6.3;75.4
23253;BME280;11795;47.054;15.408;2023-02-18T05:12:00;97780;;;6.2;75.8
23253;BME280;11795;47.054;15.408;2023-02-18T05:14:00;97780;;;6.4;75.6
23253;BME280;11795;47.054;15.408;2023-02-18T05:16:00;97790;;;6.3;75.5
23253;BME280;11795;47.054;15.408;2023-02-18T05:18:00;97790;;;6.2;75.7
23253;BME280;11795;47.054;15.408;2023-02-18T05:20:00;97790;;;6.4;74.9
23253;BME280;11795;47.054;15.408;2023-02-18T05:22:00;97790;;;6.2;75.5
23253;BME280;11795;47.054;15.408;2023-02-18T05:24:00;97790;;;6.4;75.3
23253;BME280;11795;47.054;15.408;2023-02-18T05:26:00;97800;;;6.3;75.2
23253;BME280;11795;47.054;15.408;2023-02-18T05:28:00;97800;;;6.2;75.7
23253;BME280;11795;47.054;15.408;2023-02-18T05:30:00;97800;;;6.3;75.1
23253;BME280;11795;47.054;15.408;2023-02-18T05:32:00;97800;;;6.2;75.4
23253;BME280;11795;47.054;15.408;2023-02-18T05:34:00;97800;;;6.4;75.2
23253;BME280;11795;47.054;15.408;2023-02-18T05:36:00;97810;;;6.2;75.2
23253;BME280;11795;47.054;15.408;2023-02-18T05:38:00;97800;;;6.2;75.4
23253;BME280;11795;47.054;15.408;2023-02-18T05:40:00;97800;;;6.3;75.1
23253;BME280;11795;47.054;15.408;2023-02-18T05:42:00;97810;;;6.1;75.6
23253;BME280;11795;47.054;15.408;2023-02-18T05:44:10;97810;;;6.3;75.4
23253;BME280;11795;47.054;15.408;2023-02-18T05:46:00;97820;;;6.2;75.4
23253;BME280;11795;47.054;15.408;2023-02-18T05:48:00;97810;;;6.1;75.8
23253;BME280;11795;47.054;15.408;2023-02-18T05:50:01;97810;;;6.2;75.2
23253;BME280;11795;47.054;15.408;2023-02-18T05:52:00;97820;;;6.1;75.7
23253;BME280;11795;47.054;15.408;2023-02-18T05:54:00;97810;;;6.2;75.9
23253;BME280;11795;47.054;15.408;2023-02-18T05:56:00;97820;;;6.1;75.9
23253;BME280;11795;47.054;15.408;2023-02-18T05:58:00;97810;;;6.0;76.3
23253;BME280;11795;47.054;15.408;2023-02-18T06:00:00;97810;;;6.1;76.5
23253;BME280;11795;47.054;15.408;2023-02-18T06:02:00;97820;;;5.9;77.0
23253;BME280;11795;47.054;15.408;2023-02-18T06:04:00;97820;;;6.1;76.5
23253;BME280;11795;47.054;15.408;2023-02-18T06:06:00;97810;;;6.0;76.2
23253;BME280;11795;47.054;15.408;2023-02-18T06:08:00;97820;;;5.9;77.5
23253;BME280;11795;47.054;15.408;2023-02-18T06:10:00;97830;;;6.1;77.1
23253;BME280;11795;47.054;15.408;2023-02-18T06:12:00;97820;;;6.0;77.3
23253;BME280;11795;47.054;15.408;2023-02-18T06:14:00;97820;;;6.1;77.4
23253;BME280;11795;47.054;15.408;2023-02-18T06:16:00;97830;;;6.1;77.2
23253;BME280;11795;47.054;15.408;2023-02-18T06:18:00;97820;;;6.1;77.5
23253;BME280;11795;47.054;15.408;2023-02-18T06:20:00;97820;;;6.1;77.6
23253;BME280;11795;47.054;15.408;2023-02-18T06:22:00;97830;;;6.0;78.1
23253;BME280;11795;47.054;15.408;2023-02-18T06:24:00;97830;;;6.2;77.8
23253;BME280;11795;47.054;15.408;2023-02-18T06:26:00;97830;;;6.1;77.5
23253;BME280;11795;47.054;15.408;2023-02-18T06:28:00;97830;;;6.0;77.7
23253;BME280;11795;47.054;15.408;2023-02-18T06:30:00;97830;;;6.2;77.0
23253;BME280;11795;47.054;15.408;2023-02-18T06:32:00;97830;;;6.1;77.3
23253;BME280;11795;47.054;15.408;2023-02-18T06:34:00;97830;;;6.2;77.1
23253;BME280;11795;47.054;15.408;2023-02-18T06:36:03;97830;;;6.1;77.1
23253;BME280;11795;47.054;15.408;2023-02-18T06:38:00;97840;;;6.1;77.5
23253;BME280;11795;47.054;15.408;2023-02-18T06:40:00;97840;;;6.2;76.8
23253;BME280;11795;47.054;15.408;2023-02-18T06:42:00;97840;;;6.2;77.1
23253;BME280;11795;47.054;15.408;2023-02-18T06:44:00;97840;;;6.2;76.9
23253;BME280;11795;47.054;15.408;2023-02-18T06:46:00;97840;;;6.2;76.5
23253;BME280;11795;47.054;15.408;2023-02-18T06:48:00;97840;;;6.2;76.9
23253;BME280;11795;47.054;15.408;2023-02-18T06:50:00;97840;;;6.3;76.3
23253;BME280;11795;47.054;15.408;2023-02-18T06:52:00;97840;;;6.2;76.7
23253;BME280;11795;47.054;15.408;2023-02-18T06:54:00;97840;;;6.3;76.6
23253;BME280;11795;47.054;15.408;2023-02-18T06:56:00;97840;;;6.3;76.3
23253;BME280;11795;47.054;15.408;2023-02-18T06:58:00;97840;;;6.2;76.6
23253;BME280;11795;47.054;15.408;2023-02-18T07:00:01;97840;;;6.4;75.9
23253;BME280;11795;47.054;15.408;2023-02-18T07:02:00;97830;;;6.3;76.0
23253;BME280;11795;47.054;15.408;2023-02-18T07:04:00;97840;;;6.4;76.2
23253;BME280;11795;47.054;15.408;2023-02-18T07:06:00;97840;;;6.4;76.0
23253;BME280;11795;47.054;15.408;2023-02-18T07:08:00;97840;;;6.4;76.3
23253;BME280;11795;47.054;15.408;2023-02-18T07:10:00;97840;;;6.6;75.5
23253;BME280;11795;47.054;15.408;2023-02-18T07:12:00;97850;;;6.5;75.8
23253;BME280;11795;47.054;15.408;2023-02-18T07:14:00;97840;;;6.5;75.8
23253;BME280;11795;47.054;15.408;2023-02-18T07:16:00;97840;;;6.6;75.6
23253;BME280;11795;47.054;15.408;2023-02-18T07:18:00;97840;;;6.5;76.0
23253;BME280;11795;47.054;15.408;2023-02-18T07:20:00;97850;;;6.6;75.7
23253;BME280;11795;47.054;15.408;2023-02-18T07:22:00;97830;;;6.5;76.0
23253;BME280;11795;47.054;15.408;2023-02-18T07:24:00;97830;;;6.6;76.1
23253;BME280;11795;47.054;15.408;2023-02-18T07:26:03;97850;;;6.8;75.5
23253;BME280;11795;47.054;15.408;2023-02-18T07:28:00;97850;;;6.7;75.7
23253;BME280;11795;47.054;15.408;2023-02-18T07:30:00;97840;;;6.7;75.7
23253;BME280;11795;47.054;15.408;2023-02-18T07:32:00;97860;;;6.6;76.2
23253;BME280;11795;47.054;15.408;2023-02-18T07:34:00;97860;;;6.7;76.4
23253;BME280;11795;47.054;15.408;2023-02-18T07:36:01;97850;;;6.7;76.4
23253;BME280;11795;47.054;15.408;2023-02-18T07:38:02;97850;;;6.7;76.9
23253;BME280;11795;47.054;15.408;2023-02-18T07:40:00;97870;;;6.9;76.2
23253;BME280;11795;47.054;15.408;2023-02-18T07:42:01;97870;;;7.0;76.1
23253;BME280;11795;47.054;15.408;2023-02-18T07:44:00;97860;;;6.9;76.3
23253;BME280;11795;47.054;15.408;2023-02-18T07:46:04;97850;;;7.1;75.9
23253;BME280;11795;47.054;15.408;2023-02-18T07:48:00;97870;;;7.1;76.2
23253;BME280;11795;47.054;15.408;2023-02-18T07:50:00;97870;;;7.2;75.7
23253;BME280;11795;47.054;15.408;2023-02-18T07:52:00;97880;;;7.2;75.7
23253;BME280;11795;47.054;15.408;2023-02-18T07:54:00;97880;;;7.3;75.5
23253;BME280;11795;47.054;15.408;2023-02-18T07:56:01;97870;;;7.4;75.2
23253;BME280;11795;47.054;15.408;2023-02-18T07:58:01;97870;;;7.5;74.9
23253;BME280;11795;47.054;15.408;2023-02-18T08:00:00;97870;;;7.7;74.1
23253;BME280;11795;47.054;15.408;2023-02-18T08:02:01;97870;;;7.7;74.3
23253;BME280;11795;47.054;15.408;2023-02-18T08:04:00;97860;;;7.7;73.8
23253;BME280;11795;47.054;15.408;2023-02-18T08:06:01;97850;;;7.8;73.5
23253;BME280;11795;47.054;15.408;2023-02-18T08:08:00;97880;;;7.8;73.3
23253;BME280;11795;47.054;15.408;2023-02-18T08:10:00;97880;;;8.1;72.8
23253;BME280;11795;47.054;15.408;2023-02-18T08:12:01;97870;;;8.0;73.1
23253;BME280;11795;47.054;15.408;2023-02-18T08:14:00;97870;;;8.1;73.2
23253;BME280;11795;47.054;15.408;2023-02-18T08:16:00;97880;;;8.2;72.6
23253;BME280;11795;47.054;15.408;2023-02-18T08:18:00;97870;;;8.3;72.4
23253;BME280;11795;47.054;15.408;2023-02-18T08:20:00;97880;;;8.5;71.7
23253;BME280;11795;47.054;15.408;2023-02-18T08:22:00;97880;;;8.5;71.6
23253;BME280;11795;47.054;15.408;2023-02-18T08:24:00;97880;;;8.6;71.2
23253;BME280;11795;47.054;15.408;2023-02-18T08:26:00;97880;;;8.6;71.2
23253;BME280;11795;47.054;15.408;2023-02-18T08:28:00;97880;;;8.6;71.5
23253;BME280;11795;47.054;15.408;2023-02-18T08:30:00;97880;;;8.8;70.7
23253;BME280;11795;47.054;15.408;2023-02-18T08:32:00;97870;;;8.8;70.5
23253;BME280;11795;47.054;15.408;2023-02-18T08:34:00;97880;;;8.9;70.6
23253;BME280;11795;47.054;15.408;2023-02-18T08:36:00;97880;;;9.1;69.9
23253;BME280;11795;47.054;15.408;2023-02-18T08:38:00;97880;;;9.1;70.1
23253;BME280;11795;47.054;15.408;2023-02-18T08:40:01;97870;;;9.3;69.5
23253;BME280;11795;47.054;15.408;2023-02-18T08:42:00;97870;;;9.3;69.6
23253;BME280;11795;47.054;15.408;2023-02-18T08:44:00;97880;;;9.4;69.5
23253;BME280;11795;47.054;15.408;2023-02-18T08:46:00;97880;;;9.5;68.7
23253;BME280;11795;47.054;15.408;2023-02-18T08:48:00;97880;;;9.6;68.8
23253;BME280;11795;47.054;15.408;2023-02-18T08:50:00;97880;;;9.7;67.6
23253;BME280;11795;47.054;15.408;2023-02-18T08:52:00;97880;;;9.6;68.0
23253;BME280;11795;47.054;15.408;2023-02-18T08:54:00;97870;;;9.7;68.3
23253;BME280;11795;47.054;15.408;2023-02-18T08:56:00;97870;;;9.8;67.6
23253;BME280;11795;47.054;15.408;2023-02-18T08:58:00;97870;;;9.8;67.9
23253;BME280;11795;47.054;15.408;2023-02-18T09:00:00;97870;;;10.1;67.3
23253;BME280;11795;47.054;15.408;2023-02-18T09:02:00;97880;;;10.1;67.2
23253;BME280;11795;47.054;15.408;2023-02-18T09:04:00;97880;;;10.2;67.1
23253;BME280;11795;47.054;15.408;2023-02-18T09:06:00;97860;;;10.4;66.0
23253;BME280;11795;47.054;15.408;2023-02-18T09:08:00;97880;;;10.4;65.9
23253;BME280;11795;47.054;15.408;2023-02-18T09:10:00;97870;;;10.6;65.2
23253;BME280;11795;47.054;15.408;2023-02-18T09:12:00;97860;;;10.6;65.6
23253;BME280;11795;47.054;15.408;2023-02-18T09:14:00;97870;;;10.7;65.2
23253;BME280;11795;47.054;15.408;2023-02-18T09:16:02;97860;;;11.0;64.6
23253;BME280;11795;47.054;15.408;2023-02-18T09:18:00;97850;;;11.2;63.9
23253;BME280;11795;47.054;15.408;2023-02-18T09:20:00;97850;;;11.7;62.9
23253;BME280;11795;47.054;15.408;2023-02-18T09:22:00;97850;;;12.0;62.1
23253;BME280;11795;47.054;15.408;2023-02-18T09:24:01;97840;;;12.3;61.4
23253;BME280;11795;47.054;15.408;2023-02-18T09:26:02;97850;;;12.8;59.9
23253;BME280;11795;47.054;15.408;2023-02-18T09:28:00;97840;;;13.0;59.3
23253;BME280;11795;47.054;15.408;2023-02-18T09:30:00;97850;;;13.4;57.3
23253;BME280;11795;47.054;15.408;2023-02-18T09:32:00;97850;;;13.6;56.8
23253;BME280;11795;47.054;15.408;2023-02-18T09:34:03;97850;;;13.8;56.0
23253;BME280;11795;47.054;15.408;2023-02-18T09:36:00;97850;;;14.2;55.3
23253;BME280;11795;47.054;15.408;2023-02-18T09:38:00;97850;;;14.5;54.6
23253;BME280;11795;47.054;15.408;2023-02-18T09:40:00;97850;;;14.7;52.7
23253;BME280;11795;47.054;15.408;2023-02-18T09:42:02;97850;;;14.9;52.3
23253;BME280;11795;47.054;15.408;2023-02-18T09:44:04;97850;;;15.1;51.8
23253;BME280;11795;47.054;15.408;2023-02-18T09:46:01;97850;;;15.4;51.3
23253;BME280;11795;47.054;15.408;2023-02-18T09:48:01;97840;;;15.6;50.5
23253;BME280;11795;47.054;15.408;2023-02-18T09:50:06;97840;;;15.9;49.2
23253;BME280;11795;47.054;15.408;2023-02-18T09:52:05;97840;;;16.0;49.2
23253;BME280;11795;47.054;15.408;2023-02-18T09:54:00;97830;;;16.2;48.5
23253;BME280;11795;47.054;15.408;2023-02-18T09:56:00;97830;;;16.5;47.6
23253;BME280;11795;47.054;15.408;2023-02-18T09:58:02;97830;;;16.5;47.2
23253;BME280;11795;47.054;15.408;2023-02-18T10:00:04;97830;;;16.7;47.3
23253;BME280;11795;47.054;15.408;2023-02-18T10:02:00;97820;;;16.7;46.3
23253;BME280;11795;47.054;15.408;2023-02-18T10:04:03;97820;;;16.9;46.0
23253;BME280;11795;47.054;15.408;2023-02-18T10:06:03;97820;;;17.1;46.3
23253;BME280;11795;47.054;15.408;2023-02-18T10:08:03;97820;;;17.3;45.8
23253;BME280;11795;47.054;15.408;2023-02-18T10:10:10;97820;;;17.5;44.3
23253;BME280;11795;47.054;15.408;2023-02-18T10:12:09;97820;;;17.4;44.7
23253;BME280;11795;47.054;15.408;2023-02-18T10:14:01;97810;;;17.5;44.7
23253;BME280;11795;47.054;15.408;2023-02-18T10:16:00;97800;;;17.6;44.1
23253;BME280;11795;47.054;15.408;2023-02-18T10:18:01;97810;;;17.6;44.3
23253;BME280;11795;47.054;15.408;2023-02-18T10:20:03;97810;;;17.7;44.6
23253;BME280;11795;47.054;15.408;2023-02-18T10:22:03;97800;;;17.4;44.0
23253;BME280;11795;47.054;15.408;2023-02-18T10:24:03;97800;;;17.3;44.1
23253;BME280;11795;47.054;15.408;2023-02-18T10:26:01;97790;;;17.4;43.3
23253;BME280;11795;47.054;15.408;2023-02-18T10:28:00;97800;;;17.2;44.1
23253;BME280;11795;47.054;15.408;2023-02-18T10:30:16;97800;;;17.5;43.8
23253;BME280;11795;47.054;15.408;2023-02-18T10:32:05;97780;;;17.5;43.5
23253;BME280;11795;47.054;15.408;2023-02-18T10:34:06;97780;;;17.6;43.0
23253;BME280;11795;47.054;15.408;2023-02-18T10:36:10;97780;;;17.9;43.5
23253;BME280;11795;47.054;15.408;2023-02-18T10:38:06;97780;;;18.1;43.9
23253;BME280;11795;47.054;15.408;2023-02-18T10:40:08;97770;;;18.4;41.4
23253;BME280;11795;47.054;15.408;2023-02-18T10:42:09;97760;;;18.4;41.8
23253;BME280;11795;47.054;15.408;2023-02-18T10:44:08;97760;;;18.5;41.5
23253;BME280;11795;47.054;15.408;2023-02-18T10:46:06;97760;;;18.5;41.2
23253;BME280;11795;47.054;15.408;2023-02-18T10:48:14;97760;;;18.4;41.0
23253;BME280;11795;47.054;15.408;2023-02-18T10:50:02;97760;;;18.6;41.3
23253;BME280;11795;47.054;15.408;2023-02-18T10:52:02;97760;;;18.7;41.6
23253;BME280;11795;47.054;15.408;2023-02-18T10:54:00;97750;;;18.9;40.7
23253;BME280;11795;47.054;15.408;2023-02-18T10:56:01;97740;;;19.2;40.5
23253;BME280;11795;47.054;15.408;2023-02-18T10:58:00;97740;;;19.3;39.3
23253;BME280;11795;47.054;15.408;2023-02-18T11:00:03;97740;;;19.5;39.0
23253;BME280;11795;47.054;15.408;2023-02-18T11:02:02;97730;;;19.5;39.3
23253;BME280;11795;47.054;15.408;2023-02-18T11:04:06;97730;;;19.4;39.2
23253;BME280;11795;47.054;15.408;2023-02-18T11:06:00;97720;;;19.5;38.3
23253;BME280;11795;47.054;15.408;2023-02-18T11:08:06;97720;;;19.4;39.0
23253;BME280;11795;47.054;15.408;2023-02-18T11:10:09;97720;;;19.6;38.8
23253;BME280;11795;47.054;15.408;2023-02-18T11:12:03;97710;;;19.6;39.4
23253;BME280;11795;47.054;15.408;2023-02-18T11:14:02;97700;;;19.7;38.8
23253;BME280;11795;47.054;15.408;2023-02-18T11:16:03;97710;;;19.9;38.8
23253;BME280;11795;47.054;15.408;2023-02-18T11:18:12;97700;;;19.9;37.8
23253;BME280;11795;47.054;15.408;2023-02-18T11:20:17;97700;;;20.1;37.3
23253;BME280;11795;47.054;15.408;2023-02-18T11:22:07;97690;;;20.0;37.2
23253;BME280;11795;47.054;15.408;2023-02-18T11:24:07;97680;;;20.0;36.1
23253;BME280;11795;47.054;15.408;2023-02-18T11:26:02;97680;;;19.9;36.7
23253;BME280;11795;47.054;15.408;2023-02-18T11:28:02;97680;;;19.8;37.0